HZN weather

Torre Zentrum Heliport
Cuajimalpa, Distrito Federal, Mexico

Public forecast

Using degrees Celsius for public forecast. Weather courtesy of forecast.io.

Closest aviation weather report (METAR) to Torre Zentrum Heliport

Closest report is Licenciado Benito Juarez International Airport, 12.3 nm (22.8 km) ENE. Retrieved 2019/10/15 05:54 UTC (26 minutes ago):

MMMX 150554Z 30006KT 11SM FEW020 SCT080 17/09 A3034 NOSIG RMK SLP088 52009 954 8/530

Closest aviation forecast (TAF) to Torre Zentrum Heliport

Closest forecast is Licenciado Benito Juarez International Airport, 12.3 nm (22.8 km) ENE. Retrieved 2019/10/15 06:12 UTC (8 minutes ago):

TAF MMMX 150411Z 1506/1612 34008KT P6SM SCT020 SCT080 TX27/1521Z TN14/1512Z TEMPO 1513/1517 5SM HZ FU FM151800 03010KT P6SM SCT025 BKN080 BECMG 1605/1607 01005KT